EDW3AM HECA-LSZH
Flight info
| Callsign | EDW3AM |
|---|---|
| Flight time | N/A |
| Altitude | 36000 |
| Route | HECA/05C CVO L617 MENKU Y661 ANTAR DCT LAPSO DCT NEVRA DCT TALAS DCT ENFAR DCT NEPSI DCT RUDIK DCT ERKIR DCT KPT L856 NEGRA |
| Aircraft | A343/H-SDE2E3FGHIJ4J5M1RWXY/LB1D1 |
Departure
| Time | 2026-05-05 14:57 |
|---|---|
| Airport | Cairo International Airport (HECA) |
Arrival
| Time | N/A |
|---|---|
| Airport | Zürich Airport (LSZH) |
| Time | Latitude | Longitude | Altitude | Speed | Heading |
|---|---|---|---|---|---|
| 2026-05-05 14:37 | 30.11072 | 31.40236 | 378 ft | 0 kts | 17° |
| 2026-05-05 14:43 | 30.11050 | 31.40228 | 378 ft | 4 kts | 17° |
| 2026-05-05 14:43 | 30.11028 | 31.40220 | 378 ft | 4 kts | 22° |
| 2026-05-05 14:44 | 30.11007 | 31.40205 | 378 ft | 4 kts | 56° |
| 2026-05-05 14:44 | 30.11000 | 31.40178 | 378 ft | 4 kts | 100° |
| 2026-05-05 14:44 | 30.11007 | 31.40148 | 378 ft | 4 kts | 109° |
| 2026-05-05 14:44 | 30.11009 | 31.40142 | 378 ft | 0 kts | 107° |
| 2026-05-05 14:47 | 30.11007 | 31.40148 | 378 ft | 3 kts | 107° |
| 2026-05-05 14:47 | 30.10997 | 31.40188 | 378 ft | 8 kts | 108° |
| 2026-05-05 14:47 | 30.10977 | 31.40260 | 378 ft | 10 kts | 107° |
| 2026-05-05 14:48 | 30.10963 | 31.40314 | 378 ft | 11 kts | 107° |
| 2026-05-05 14:48 | 30.10940 | 31.40402 | 378 ft | 12 kts | 107° |
| 2026-05-05 14:48 | 30.10893 | 31.40463 | 378 ft | 10 kts | 171° |
| 2026-05-05 14:48 | 30.10823 | 31.40407 | 378 ft | 11 kts | 229° |
| 2026-05-05 14:49 | 30.10765 | 31.40331 | 378 ft | 13 kts | 229° |
| 2026-05-05 14:49 | 30.10708 | 31.40254 | 378 ft | 12 kts | 229° |
| 2026-05-05 14:49 | 30.10671 | 31.40206 | 378 ft | 12 kts | 229° |
| 2026-05-05 14:49 | 30.10614 | 31.40131 | 378 ft | 13 kts | 229° |
| 2026-05-05 14:50 | 30.10553 | 31.40050 | 378 ft | 14 kts | 229° |
| 2026-05-05 14:50 | 30.10489 | 31.39966 | 378 ft | 14 kts | 229° |
| 2026-05-05 14:50 | 30.10422 | 31.39877 | 378 ft | 15 kts | 229° |
| 2026-05-05 14:50 | 30.10353 | 31.39784 | 378 ft | 16 kts | 229° |
| 2026-05-05 14:51 | 30.10279 | 31.39689 | 378 ft | 16 kts | 228° |
| 2026-05-05 14:51 | 30.10215 | 31.39606 | 378 ft | 11 kts | 229° |
| 2026-05-05 14:51 | 30.10150 | 31.39577 | 378 ft | 10 kts | 161° |
| 2026-05-05 14:51 | 30.10092 | 31.39629 | 378 ft | 9 kts | 140° |
| 2026-05-05 14:52 | 30.10055 | 31.39665 | 378 ft | 5 kts | 140° |
| 2026-05-05 14:52 | 30.10040 | 31.39680 | 378 ft | 0 kts | 138° |
| 2026-05-05 14:55 | 30.10032 | 31.39689 | 378 ft | 6 kts | 136° |
| 2026-05-05 14:55 | 30.10004 | 31.39751 | 378 ft | 10 kts | 100° |
| 2026-05-05 14:55 | 30.10011 | 31.39832 | 377 ft | 12 kts | 79° |
| 2026-05-05 14:56 | 30.10037 | 31.39919 | 379 ft | 12 kts | 53° |
| 2026-05-05 14:56 | 30.10131 | 31.40042 | 379 ft | 41 kts | 49° |
| 2026-05-05 14:56 | 30.10442 | 31.40456 | 382 ft | 96 kts | 49° |
| 2026-05-05 14:56 | 30.10988 | 31.41181 | 378 ft | 141 kts | 49° |
| 2026-05-05 14:57 | 30.11714 | 31.42149 | 461 ft | 172 kts | 44° |
| 2026-05-05 14:57 | 30.12525 | 31.43196 | 930 ft | 176 kts | 39° |
| 2026-05-05 14:57 | 30.13562 | 31.43867 | 1514 ft | 170 kts | 9° |
| 2026-05-05 14:57 | 30.14699 | 31.43677 | 2133 ft | 170 kts | 329° |
| 2026-05-05 14:58 | 30.15741 | 31.42863 | 2540 ft | 191 kts | 322° |
| 2026-05-05 14:58 | 30.16847 | 31.41833 | 2898 ft | 220 kts | 320° |
| 2026-05-05 14:58 | 30.18046 | 31.40606 | 3491 ft | 237 kts | 317° |
| 2026-05-05 14:58 | 30.19257 | 31.39259 | 4326 ft | 243 kts | 315° |
| 2026-05-05 14:59 | 30.20447 | 31.37861 | 5313 ft | 245 kts | 314° |
| 2026-05-05 14:59 | 30.21643 | 31.36423 | 6199 ft | 251 kts | 314° |
| 2026-05-05 14:59 | 30.22848 | 31.34964 | 7027 ft | 256 kts | 314° |
| 2026-05-05 14:59 | 30.24084 | 31.33467 | 7911 ft | 260 kts | 314° |
| 2026-05-05 15:00 | 30.25347 | 31.31942 | 8723 ft | 264 kts | 313° |
| 2026-05-05 15:00 | 30.26190 | 31.30926 | 9338 ft | 265 kts | 313° |
| 2026-05-05 15:00 | 30.27915 | 31.28853 | 10357 ft | 273 kts | 313° |
| 2026-05-05 15:00 | 30.29275 | 31.27220 | 10726 ft | 291 kts | 313° |
| 2026-05-05 15:01 | 30.30721 | 31.25484 | 11050 ft | 309 kts | 313° |
| 2026-05-05 15:01 | 30.32255 | 31.23642 | 11357 ft | 326 kts | 313° |
| 2026-05-05 15:01 | 30.33868 | 31.21706 | 11696 ft | 341 kts | 313° |
| 2026-05-05 15:01 | 30.35512 | 31.19732 | 12254 ft | 348 kts | 313° |
| 2026-05-05 15:02 | 30.37200 | 31.17705 | 12957 ft | 351 kts | 312° |
| 2026-05-05 15:02 | 30.38902 | 31.15662 | 13674 ft | 354 kts | 312° |
| 2026-05-05 15:02 | 30.40620 | 31.13598 | 14340 ft | 357 kts | 312° |
| 2026-05-05 15:02 | 30.42348 | 31.11519 | 14986 ft | 360 kts | 311° |
| 2026-05-05 15:03 | 30.44090 | 31.09422 | 15655 ft | 362 kts | 311° |
| 2026-05-05 15:03 | 30.45841 | 31.07312 | 16322 ft | 364 kts | 311° |
| 2026-05-05 15:03 | 30.47603 | 31.05188 | 17001 ft | 367 kts | 311° |
| 2026-05-05 15:03 | 30.49354 | 31.03075 | 17657 ft | 369 kts | 311° |
| 2026-05-05 15:04 | 30.51138 | 31.00922 | 18333 ft | 371 kts | 311° |
| 2026-05-05 15:04 | 30.52932 | 30.98756 | 18910 ft | 373 kts | 311° |
| 2026-05-05 15:04 | 30.54735 | 30.96577 | 19489 ft | 375 kts | 310° |
| 2026-05-05 15:04 | 30.56546 | 30.94387 | 20086 ft | 377 kts | 310° |
| 2026-05-05 15:05 | 30.60191 | 30.89976 | 21244 ft | 380 kts | 310° |
| 2026-05-05 15:05 | 30.62028 | 30.87752 | 21804 ft | 383 kts | 310° |
| 2026-05-05 15:05 | 30.63848 | 30.85546 | 22330 ft | 385 kts | 310° |
| 2026-05-05 15:06 | 30.65702 | 30.83297 | 22882 ft | 387 kts | 310° |
| 2026-05-05 15:06 | 30.67568 | 30.81033 | 23382 ft | 389 kts | 310° |
| 2026-05-05 15:06 | 30.69445 | 30.78754 | 23862 ft | 391 kts | 310° |
| 2026-05-05 15:06 | 30.71332 | 30.76461 | 24247 ft | 394 kts | 309° |
| 2026-05-05 15:07 | 30.73234 | 30.74149 | 24616 ft | 397 kts | 309° |
| 2026-05-05 15:07 | 30.75152 | 30.71815 | 25004 ft | 400 kts | 309° |
| 2026-05-05 15:07 | 30.77078 | 30.69471 | 25386 ft | 403 kts | 309° |
| 2026-05-05 15:07 | 30.79021 | 30.67107 | 25752 ft | 405 kts | 309° |
| 2026-05-05 15:08 | 30.80944 | 30.64763 | 26114 ft | 407 kts | 309° |
| 2026-05-05 15:08 | 30.82906 | 30.62372 | 26525 ft | 409 kts | 309° |
| 2026-05-05 15:08 | 30.84876 | 30.59969 | 26909 ft | 411 kts | 309° |
| 2026-05-05 15:08 | 30.86857 | 30.57551 | 27254 ft | 414 kts | 309° |
| 2026-05-05 15:09 | 30.88846 | 30.55123 | 27591 ft | 416 kts | 309° |
| 2026-05-05 15:09 | 30.90847 | 30.52676 | 27924 ft | 418 kts | 309° |
| 2026-05-05 15:09 | 30.92861 | 30.50213 | 28253 ft | 421 kts | 309° |
| 2026-05-05 15:09 | 30.94883 | 30.47738 | 28585 ft | 423 kts | 309° |
| 2026-05-05 15:10 | 30.96887 | 30.45284 | 28894 ft | 425 kts | 309° |
| 2026-05-05 15:10 | 30.98928 | 30.42781 | 29201 ft | 427 kts | 309° |
| 2026-05-05 15:10 | 31.00980 | 30.40266 | 29501 ft | 429 kts | 309° |
| 2026-05-05 15:10 | 31.03041 | 30.37736 | 29788 ft | 431 kts | 309° |
| 2026-05-05 15:11 | 31.05110 | 30.35197 | 30137 ft | 432 kts | 309° |
| 2026-05-05 15:11 | 31.07180 | 30.32670 | 30497 ft | 431 kts | 310° |
| 2026-05-05 15:11 | 31.09419 | 30.30325 | 30864 ft | 434 kts | 317° |
| 2026-05-05 15:11 | 31.11889 | 30.28276 | 31224 ft | 436 kts | 321° |
| 2026-05-05 15:12 | 31.14396 | 30.26364 | 31554 ft | 436 kts | 322° |
| 2026-05-05 15:12 | 31.16965 | 30.24476 | 31952 ft | 435 kts | 322° |
| 2026-05-05 15:12 | 31.19526 | 30.22632 | 32504 ft | 430 kts | 322° |
| 2026-05-05 15:12 | 31.22069 | 30.20809 | 32861 ft | 429 kts | 322° |
| 2026-05-05 15:13 | 31.24611 | 30.18982 | 33125 ft | 429 kts | 322° |
| 2026-05-05 15:13 | 31.27148 | 30.17149 | 33406 ft | 429 kts | 322° |
| 2026-05-05 15:13 | 31.29681 | 30.15313 | 33706 ft | 428 kts | 322° |
| 2026-05-05 15:13 | 31.32212 | 30.13475 | 33998 ft | 428 kts | 322° |
| 2026-05-05 15:14 | 31.34737 | 30.11636 | 34259 ft | 427 kts | 322° |
| 2026-05-05 15:14 | 31.37226 | 30.09822 | 34487 ft | 427 kts | 322° |
| 2026-05-05 15:14 | 31.39749 | 30.07982 | 34725 ft | 427 kts | 322° |
| 2026-05-05 15:14 | 31.42267 | 30.06144 | 34964 ft | 427 kts | 322° |
| 2026-05-05 15:15 | 31.44788 | 30.04303 | 35188 ft | 427 kts | 322° |
| 2026-05-05 15:15 | 31.47302 | 30.02467 | 35514 ft | 425 kts | 322° |
| 2026-05-05 15:15 | 31.49801 | 30.00642 | 35818 ft | 423 kts | 322° |
| 2026-05-05 15:15 | 31.52296 | 29.98818 | 36037 ft | 423 kts | 322° |
| 2026-05-05 15:16 | 31.54798 | 29.96985 | 36084 ft | 426 kts | 322° |
| 2026-05-05 15:16 | 31.59775 | 29.93338 | 36092 ft | 423 kts | 322° |
| 2026-05-05 15:17 | 31.64761 | 29.89682 | 36091 ft | 423 kts | 322° |
| 2026-05-05 15:17 | 31.69746 | 29.86020 | 36089 ft | 423 kts | 322° |
| 2026-05-05 15:18 | 31.74729 | 29.82355 | 36085 ft | 423 kts | 322° |
| 2026-05-05 15:18 | 31.79679 | 29.78710 | 36093 ft | 423 kts | 322° |
| 2026-05-05 15:19 | 31.84663 | 29.75036 | 36088 ft | 423 kts | 322° |
| 2026-05-05 15:19 | 31.89648 | 29.71356 | 36089 ft | 423 kts | 322° |
| 2026-05-05 15:20 | 31.94627 | 29.67676 | 36088 ft | 423 kts | 322° |
| 2026-05-05 15:20 | 31.99576 | 29.64013 | 36088 ft | 423 kts | 322° |
| 2026-05-05 15:21 | 32.04555 | 29.60323 | 36089 ft | 423 kts | 322° |
| 2026-05-05 15:21 | 32.09539 | 29.56625 | 36087 ft | 423 kts | 322° |
| 2026-05-05 15:22 | 32.14519 | 29.52924 | 36081 ft | 423 kts | 322° |
| 2026-05-05 15:22 | 32.19489 | 29.49207 | 36088 ft | 423 kts | 322° |
| 2026-05-05 15:23 | 32.24420 | 29.45518 | 36078 ft | 423 kts | 322° |
| 2026-05-05 15:23 | 32.29388 | 29.41800 | 36082 ft | 422 kts | 322° |
| 2026-05-05 15:24 | 32.34350 | 29.38081 | 36086 ft | 422 kts | 322° |
| 2026-05-05 15:24 | 32.39314 | 29.34357 | 36085 ft | 422 kts | 322° |
| 2026-05-05 15:25 | 32.44242 | 29.30654 | 36084 ft | 422 kts | 322° |
| 2026-05-05 15:25 | 32.49204 | 29.26921 | 36084 ft | 422 kts | 322° |
| 2026-05-05 15:26 | 32.54163 | 29.23185 | 36084 ft | 422 kts | 323° |
| 2026-05-05 15:26 | 32.59119 | 29.19447 | 36082 ft | 422 kts | 323° |
| 2026-05-05 15:27 | 32.64032 | 29.15736 | 36087 ft | 422 kts | 323° |
| 2026-05-05 15:27 | 32.68983 | 29.11990 | 36080 ft | 422 kts | 323° |
| 2026-05-05 15:28 | 32.73934 | 29.08241 | 36083 ft | 422 kts | 323° |
| 2026-05-05 15:28 | 32.78886 | 29.04485 | 36078 ft | 422 kts | 323° |
| 2026-05-05 15:29 | 32.83837 | 29.00726 | 36081 ft | 422 kts | 323° |
| 2026-05-05 15:29 | 32.88753 | 28.96988 | 36078 ft | 422 kts | 323° |
| 2026-05-05 15:30 | 32.93698 | 28.93222 | 36098 ft | 422 kts | 323° |
| 2026-05-05 15:30 | 32.98640 | 28.89454 | 36079 ft | 422 kts | 323° |
| 2026-05-05 15:31 | 33.03578 | 28.85684 | 36081 ft | 422 kts | 323° |
| 2026-05-05 15:31 | 33.08482 | 28.81935 | 36079 ft | 422 kts | 323° |
| 2026-05-05 15:32 | 33.13420 | 28.78155 | 36069 ft | 422 kts | 323° |
| 2026-05-05 15:32 | 33.18356 | 28.74371 | 36072 ft | 422 kts | 323° |
| 2026-05-05 15:33 | 33.23260 | 28.70606 | 36082 ft | 422 kts | 323° |
| 2026-05-05 15:33 | 33.28173 | 28.66829 | 36072 ft | 419 kts | 323° |
| 2026-05-05 15:34 | 33.33071 | 28.63060 | 36071 ft | 419 kts | 323° |
| 2026-05-05 15:34 | 33.37972 | 28.59283 | 36073 ft | 419 kts | 323° |
| 2026-05-05 15:35 | 33.42874 | 28.55499 | 36069 ft | 419 kts | 323° |
| 2026-05-05 15:35 | 33.47742 | 28.51737 | 36070 ft | 419 kts | 323° |
| 2026-05-05 15:36 | 33.52639 | 28.47948 | 36073 ft | 419 kts | 324° |
| 2026-05-05 15:36 | 33.57522 | 28.44165 | 36066 ft | 417 kts | 324° |
| 2026-05-05 15:37 | 33.62390 | 28.40386 | 36067 ft | 417 kts | 324° |
| 2026-05-05 15:37 | 33.67223 | 28.36630 | 36067 ft | 417 kts | 324° |
| 2026-05-05 15:38 | 33.72090 | 28.32843 | 36064 ft | 416 kts | 324° |
| 2026-05-05 15:38 | 33.76950 | 28.29056 | 36067 ft | 416 kts | 324° |
| 2026-05-05 15:39 | 33.81810 | 28.25265 | 36068 ft | 416 kts | 324° |
| 2026-05-05 15:39 | 33.86663 | 28.21474 | 36066 ft | 416 kts | 324° |
| 2026-05-05 15:40 | 33.91477 | 28.17707 | 36059 ft | 416 kts | 324° |
| 2026-05-05 15:40 | 33.96327 | 28.13908 | 36065 ft | 416 kts | 324° |
| 2026-05-05 15:41 | 34.01172 | 28.10107 | 36061 ft | 416 kts | 324° |
| 2026-05-05 15:41 | 34.06021 | 28.06298 | 36057 ft | 416 kts | 324° |
| 2026-05-05 15:42 | 34.10831 | 28.02514 | 36064 ft | 415 kts | 324° |
| 2026-05-05 15:42 | 34.15658 | 27.98713 | 36058 ft | 414 kts | 324° |
| 2026-05-05 15:43 | 34.20478 | 27.94911 | 36060 ft | 414 kts | 324° |
| 2026-05-05 15:43 | 34.25294 | 27.91107 | 36058 ft | 414 kts | 324° |
| 2026-05-05 15:44 | 34.30080 | 27.87321 | 36056 ft | 414 kts | 324° |
| 2026-05-05 15:44 | 34.34905 | 27.83499 | 36056 ft | 414 kts | 324° |
| 2026-05-05 15:45 | 34.39721 | 27.79679 | 36054 ft | 414 kts | 324° |
| 2026-05-05 15:45 | 34.44501 | 27.75883 | 36053 ft | 413 kts | 324° |
| 2026-05-05 15:46 | 34.49308 | 27.72060 | 36051 ft | 413 kts | 324° |
| 2026-05-05 15:46 | 34.54114 | 27.68232 | 36053 ft | 413 kts | 324° |
| 2026-05-05 15:47 | 34.58919 | 27.64399 | 36052 ft | 413 kts | 324° |
| 2026-05-05 15:47 | 34.63722 | 27.60563 | 36051 ft | 413 kts | 324° |
| 2026-05-05 15:48 | 34.68527 | 27.56719 | 36058 ft | 414 kts | 324° |
| 2026-05-05 15:48 | 34.73311 | 27.52887 | 36056 ft | 415 kts | 324° |
| 2026-05-05 15:49 | 34.78130 | 27.49022 | 36054 ft | 415 kts | 324° |
| 2026-05-05 15:49 | 34.82943 | 27.45155 | 36048 ft | 414 kts | 324° |
| 2026-05-05 15:50 | 34.87738 | 27.41298 | 36051 ft | 413 kts | 324° |
| 2026-05-05 15:50 | 34.92497 | 27.37465 | 36051 ft | 413 kts | 324° |
| 2026-05-05 15:51 | 34.97289 | 27.33600 | 36043 ft | 414 kts | 324° |
| 2026-05-05 15:51 | 35.02090 | 27.29721 | 36045 ft | 414 kts | 324° |
| 2026-05-05 15:52 | 35.06891 | 27.25836 | 36035 ft | 414 kts | 324° |
| 2026-05-05 15:52 | 35.11660 | 27.21890 | 36045 ft | 414 kts | 324° |
| 2026-05-05 15:53 | 35.16380 | 27.17946 | 36039 ft | 414 kts | 324° |
| 2026-05-05 15:53 | 35.21135 | 27.13979 | 36047 ft | 414 kts | 324° |
| 2026-05-05 15:54 | 35.25890 | 27.10017 | 36048 ft | 413 kts | 324° |
| 2026-05-05 15:54 | 35.30642 | 27.06055 | 36048 ft | 413 kts | 324° |
| 2026-05-05 15:55 | 35.35364 | 27.02112 | 36048 ft | 413 kts | 324° |
| 2026-05-05 15:55 | 35.40113 | 26.98142 | 36027 ft | 413 kts | 323° |
| 2026-05-05 15:56 | 35.44860 | 26.94165 | 36050 ft | 413 kts | 324° |
| 2026-05-05 15:56 | 35.49610 | 26.90182 | 36049 ft | 413 kts | 324° |
| 2026-05-05 15:57 | 35.54321 | 26.86224 | 36046 ft | 413 kts | 324° |
| 2026-05-05 15:57 | 35.59059 | 26.82240 | 36050 ft | 412 kts | 324° |
| 2026-05-05 15:58 | 35.63790 | 26.78255 | 36063 ft | 412 kts | 324° |
| 2026-05-05 15:58 | 35.68522 | 26.74263 | 36065 ft | 413 kts | 324° |
| 2026-05-05 15:59 | 35.73223 | 26.70291 | 36065 ft | 413 kts | 324° |
| 2026-05-05 15:59 | 35.77952 | 26.66290 | 36062 ft | 412 kts | 324° |
| 2026-05-05 16:00 | 35.82680 | 26.62283 | 36055 ft | 412 kts | 324° |
| 2026-05-05 16:00 | 35.87407 | 26.58272 | 36067 ft | 412 kts | 324° |
| 2026-05-05 16:01 | 35.92130 | 26.54258 | 36044 ft | 412 kts | 324° |
| 2026-05-05 16:01 | 35.96815 | 26.50271 | 36046 ft | 412 kts | 324° |
| 2026-05-05 16:02 | 36.01534 | 26.46248 | 36050 ft | 412 kts | 324° |
| 2026-05-05 16:02 | 36.06251 | 26.42222 | 36047 ft | 412 kts | 324° |
| 2026-05-05 16:03 | 36.10963 | 26.38193 | 36054 ft | 412 kts | 324° |
| 2026-05-05 16:03 | 36.15639 | 26.34190 | 36057 ft | 411 kts | 324° |
| 2026-05-05 16:04 | 36.20345 | 26.30156 | 36053 ft | 411 kts | 324° |
| 2026-05-05 16:04 | 36.25050 | 26.26115 | 36054 ft | 411 kts | 324° |
| 2026-05-05 16:05 | 36.29751 | 26.22073 | 36047 ft | 411 kts | 324° |
| 2026-05-05 16:05 | 36.34413 | 26.18058 | 36052 ft | 411 kts | 324° |
| 2026-05-05 16:06 | 36.39107 | 26.14008 | 36054 ft | 411 kts | 324° |
| 2026-05-05 16:06 | 36.43800 | 26.09954 | 36053 ft | 411 kts | 324° |
| 2026-05-05 16:07 | 36.48496 | 26.05892 | 36056 ft | 411 kts | 324° |
| 2026-05-05 16:07 | 36.53155 | 26.01856 | 36049 ft | 411 kts | 324° |
| 2026-05-05 16:08 | 36.57846 | 25.97785 | 36054 ft | 411 kts | 324° |
| 2026-05-05 16:08 | 36.62536 | 25.93710 | 36054 ft | 411 kts | 324° |
| 2026-05-05 16:09 | 36.67210 | 25.89641 | 36054 ft | 410 kts | 324° |
| 2026-05-05 16:09 | 36.71845 | 25.85601 | 36054 ft | 409 kts | 324° |
| 2026-05-05 16:10 | 36.76511 | 25.81527 | 36051 ft | 409 kts | 324° |
| 2026-05-05 16:10 | 36.81175 | 25.77450 | 36052 ft | 410 kts | 324° |
| 2026-05-05 16:11 | 36.85839 | 25.73366 | 36054 ft | 409 kts | 324° |
| 2026-05-05 16:12 | 36.95136 | 25.65206 | 36051 ft | 410 kts | 324° |
| 2026-05-05 16:13 | 37.06771 | 25.54958 | 36046 ft | 410 kts | 324° |
| 2026-05-05 16:13 | 37.11434 | 25.50838 | 36049 ft | 410 kts | 324° |
| 2026-05-05 16:14 | 37.20759 | 25.42587 | 36044 ft | 410 kts | 324° |
| 2026-05-05 16:15 | 37.30056 | 25.34335 | 36047 ft | 411 kts | 324° |
| 2026-05-05 16:16 | 37.39371 | 25.26041 | 36064 ft | 410 kts | 324° |
| 2026-05-05 16:17 | 37.46311 | 25.19843 | 36074 ft | 410 kts | 324° |
| 2026-05-05 16:18 | 37.53289 | 25.13597 | 36066 ft | 411 kts | 324° |
| 2026-05-05 16:19 | 37.60270 | 25.07334 | 36060 ft | 411 kts | 324° |
| 2026-05-05 16:19 | 37.67214 | 25.01090 | 36060 ft | 411 kts | 324° |
| 2026-05-05 16:20 | 37.76497 | 24.92720 | 36051 ft | 410 kts | 323° |